Time;durP1;ratioP1;P1;durP2;ratioP2;P2;SDS_P1;SDS_P2;PMS_P1;PMS_P2;Temp;Humidity;BMP_temperature;BMP_pressure;BME280_temperature;BME280_humidity;BME280_pressure;Samples;Min_cycle;Max_cycle;Signal;HPM_P1;HPM_P2
2023/03/09 00:01:50;;;;;;;47.92;7.22;;;;;;;;;;5018067;28;20410;-72
2023/03/09 00:04:17;;;;;;;39.72;8.93;;;;;;;;;;5050237;28;20071;-72
2023/03/09 00:06:43;;;;;;;51.63;7.25;;;;;;;;;;5052137;28;20021;-72
2023/03/09 00:09:10;;;;;;;33.75;5.85;;;;;;;;;;5052410;28;20068;-72
2023/03/09 00:11:36;;;;;;;43.00;7.13;;;;;;;;;;5052073;28;20021;-72
2023/03/09 00:14:02;;;;;;;48.25;6.32;;;;;;;;;;5046531;28;20405;-73
2023/03/09 00:16:29;;;;;;;47.97;6.85;;;;;;;;;;5033471;28;20038;-73
2023/03/09 00:18:57;;;;;;;31.92;6.07;;;;;;;;;;5051667;28;20033;-72
2023/03/09 00:21:34;;;;;;;53.08;9.48;;;;;;;;;;5053159;28;20033;-72
2023/03/09 00:24:01;;;;;;;46.60;8.07;;;;;;;;;;5016808;28;20175;-72
2023/03/09 00:26:27;;;;;;;50.40;7.10;;;;;;;;;;5016669;28;20052;-72
2023/03/09 00:28:53;;;;;;;42.67;7.63;;;;;;;;;;5031637;28;20116;-73
2023/03/09 00:31:20;;;;;;;39.72;7.70;;;;;;;;;;5016755;28;20022;-72
2023/03/09 00:33:49;;;;;;;54.10;7.82;;;;;;;;;;5014894;28;20378;-72
2023/03/09 00:36:16;;;;;;;39.40;6.00;;;;;;;;;;5031161;28;20083;-72
2023/03/09 00:38:42;;;;;;;39.88;7.25;;;;;;;;;;5021615;28;20034;-72
2023/03/09 00:41:08;;;;;;;36.90;7.80;;;;;;;;;;5050769;28;20115;-72
2023/03/09 00:43:35;;;;;;;48.08;6.40;;;;;;;;;;5036080;28;20045;-72
2023/03/09 00:46:01;;;;;;;44.42;7.35;;;;;;;;;;5036084;28;20033;-72
2023/03/09 00:48:27;;;;;;;46.65;8.00;;;;;;;;;;5041778;28;20032;-72
2023/03/09 00:50:53;;;;;;;39.10;6.85;;;;;;;;;;5015509;28;20040;-72
2023/03/09 00:53:19;;;;;;;41.13;7.80;;;;;;;;;;5014193;28;20048;-72
2023/03/09 00:55:45;;;;;;;48.17;8.35;;;;;;;;;;5017924;28;20037;-72
2023/03/09 00:58:11;;;;;;;46.35;8.93;;;;;;;;;;5037705;28;20068;-72
2023/03/09 01:00:38;;;;;;;34.55;6.72;;;;;;;;;;5023992;28;20033;-72
2023/03/09 01:03:05;;;;;;;51.97;7.88;;;;;;;;;;5035701;28;20535;-72
2023/03/09 01:05:31;;;;;;;41.95;7.22;;;;;;;;;;5039492;28;20021;-73
2023/03/09 01:07:57;;;;;;;57.97;8.45;;;;;;;;;;5045699;28;20022;-72
2023/03/09 01:10:23;;;;;;;47.00;8.88;;;;;;;;;;5007845;28;20057;-72
2023/03/09 01:12:50;;;;;;;47.55;8.02;;;;;;;;;;4999673;28;20394;-72
2023/03/09 01:15:16;;;;;;;49.65;8.27;;;;;;;;;;5037520;28;20039;-72
2023/03/09 01:17:43;;;;;;;52.08;9.18;;;;;;;;;;5011030;28;20029;-72
2023/03/09 01:20:10;;;;;;;53.55;8.73;;;;;;;;;;5024457;28;20466;-72
2023/03/09 01:22:36;;;;;;;52.70;7.10;;;;;;;;;;5031774;28;20122;-71
2023/03/09 01:25:03;;;;;;;50.15;7.35;;;;;;;;;;5055379;28;20022;-73
2023/03/09 01:27:29;;;;;;;52.05;7.20;;;;;;;;;;5036689;28;20033;-72
2023/03/09 01:29:56;;;;;;;50.67;7.93;;;;;;;;;;5038635;28;20033;-72
2023/03/09 01:32:22;;;;;;;48.35;8.30;;;;;;;;;;5050043;28;20493;-72
2023/03/09 01:34:48;;;;;;;52.08;8.52;;;;;;;;;;5011720;28;20037;-72
2023/03/09 01:37:14;;;;;;;49.28;8.30;;;;;;;;;;5037221;28;20082;-72
2023/03/09 01:39:41;;;;;;;46.17;9.90;;;;;;;;;;5054903;28;20562;-73
2023/03/09 01:42:07;;;;;;;45.42;8.90;;;;;;;;;;5022901;28;20029;-72
2023/03/09 01:44:33;;;;;;;49.85;8.05;;;;;;;;;;5028488;28;20030;-71
2023/03/09 01:46:59;;;;;;;54.75;10.38;;;;;;;;;;5045996;28;20035;-71
2023/03/09 01:49:28;;;;;;;47.28;8.77;;;;;;;;;;5042500;28;20477;-72
2023/03/09 01:52:18;;;;;;;51.53;7.57;;;;;;;;;;5016800;28;20029;-72
2023/03/09 01:54:54;;;;;;;49.78;9.35;;;;;;;;;;4992108;28;20460;-71
2023/03/09 01:57:32;;;;;;;57.10;9.00;;;;;;;;;;5015022;28;20040;-71
2023/03/09 02:00:18;;;;;;;48.28;7.47;;;;;;;;;;5013451;28;20375;-71
2023/03/09 02:03:09;;;;;;;51.45;9.85;;;;;;;;;;5033833;28;20489;-71
2023/03/09 02:05:47;;;;;;;47.05;9.48;;;;;;;;;;5035961;28;20029;-71
2023/03/09 02:08:16;;;;;;;54.97;8.73;;;;;;;;;;5049179;28;20029;-72
2023/03/09 02:10:55;;;;;;;54.88;8.18;;;;;;;;;;5034692;28;20436;-71
2023/03/09 02:13:22;;;;;;;47.35;8.15;;;;;;;;;;5021462;28;20444;-71
2023/03/09 02:15:49;;;;;;;63.17;10.10;;;;;;;;;;5014729;28;20026;-72
2023/03/09 02:18:16;;;;;;;56.50;8.38;;;;;;;;;;5014291;28;20037;-72
2023/03/09 02:21:00;;;;;;;65.13;9.77;;;;;;;;;;5009167;28;20183;-72
2023/03/09 02:23:29;;;;;;;59.63;8.80;;;;;;;;;;5037236;28;20108;-72
2023/03/09 02:26:19;;;;;;;43.63;7.38;;;;;;;;;;5021626;28;20029;-72
2023/03/09 02:28:47;;;;;;;54.38;9.07;;;;;;;;;;5012460;28;20126;-72
2023/03/09 02:31:14;;;;;;;54.42;8.60;;;;;;;;;;5037424;28;20475;-72
2023/03/09 02:33:41;;;;;;;55.85;9.63;;;;;;;;;;5020902;28;20041;-72
2023/03/09 02:36:07;;;;;;;62.15;8.13;;;;;;;;;;5021975;28;20018;-72
2023/03/09 02:38:38;;;;;;;58.28;9.40;;;;;;;;;;5003653;28;20054;-72
2023/03/09 02:41:08;;;;;;;52.08;7.75;;;;;;;;;;5004945;28;20495;-72
2023/03/09 02:43:36;;;;;;;53.70;8.05;;;;;;;;;;5009489;28;20022;-72
2023/03/09 02:46:03;;;;;;;52.25;9.77;;;;;;;;;;5036172;28;20449;-72
2023/03/09 02:48:33;;;;;;;48.28;7.90;;;;;;;;;;5006094;28;20556;-71
2023/03/09 02:50:59;;;;;;;48.97;10.07;;;;;;;;;;5010044;28;20018;-72
2023/03/09 02:53:26;;;;;;;62.70;8.30;;;;;;;;;;5026178;28;20150;-71
2023/03/09 02:55:55;;;;;;;54.25;7.25;;;;;;;;;;5023047;28;20550;-71
2023/03/09 02:58:21;;;;;;;54.83;8.57;;;;;;;;;;5038482;28;20032;-72
2023/03/09 03:00:49;;;;;;;52.45;11.88;;;;;;;;;;5003714;28;20030;-71
2023/03/09 03:03:18;;;;;;;48.22;7.82;;;;;;;;;;5003748;28;20021;-71
2023/03/09 03:05:45;;;;;;;66.82;10.75;;;;;;;;;;5040739;28;20400;-72
2023/03/09 03:08:11;;;;;;;52.53;9.10;;;;;;;;;;5003845;28;20038;-72
2023/03/09 03:10:37;;;;;;;49.05;9.70;;;;;;;;;;5005058;28;20414;-71
2023/03/09 03:13:04;;;;;;;53.78;10.27;;;;;;;;;;5003083;28;20033;-71
2023/03/09 03:15:30;;;;;;;61.45;8.48;;;;;;;;;;5021544;28;20029;-72
2023/03/09 03:17:56;;;;;;;63.50;7.60;;;;;;;;;;5004623;28;20036;-71
2023/03/09 03:20:23;;;;;;;45.80;8.48;;;;;;;;;;5023583;28;20084;-71
2023/03/09 03:22:50;;;;;;;56.42;10.02;;;;;;;;;;5021452;28;20045;-71
2023/03/09 03:25:22;;;;;;;54.60;8.88;;;;;;;;;;5018065;28;20030;-71
2023/03/09 03:27:50;;;;;;;63.45;10.18;;;;;;;;;;5003895;28;20029;-71
2023/03/09 03:30:17;;;;;;;53.67;9.45;;;;;;;;;;5022584;28;20037;-71
2023/03/09 03:32:51;;;;;;;52.83;8.38;;;;;;;;;;5030397;28;20049;-71
2023/03/09 03:35:17;;;;;;;54.10;10.07;;;;;;;;;;5032017;28;20071;-71
2023/03/09 03:37:45;;;;;;;56.50;8.55;;;;;;;;;;5004801;28;20129;-71
2023/03/09 03:40:12;;;;;;;52.38;8.20;;;;;;;;;;5003499;28;20116;-71
2023/03/09 03:42:41;;;;;;;59.13;7.63;;;;;;;;;;5004640;28;20501;-71
2023/03/09 03:45:11;;;;;;;45.33;9.20;;;;;;;;;;5003070;28;20042;-71
2023/03/09 03:47:37;;;;;;;75.95;10.48;;;;;;;;;;5002908;28;20472;-71
2023/03/09 03:50:03;;;;;;;50.83;7.80;;;;;;;;;;5037483;28;20037;-72
2023/03/09 03:52:33;;;;;;;47.13;8.15;;;;;;;;;;5002822;28;20408;-72
2023/03/09 03:55:00;;;;;;;48.20;9.07;;;;;;;;;;5037352;28;20083;-72
2023/03/09 03:57:28;;;;;;;49.35;9.50;;;;;;;;;;5040151;28;20029;-72
2023/03/09 03:59:54;;;;;;;59.95;10.00;;;;;;;;;;5002682;28;20097;-72
2023/03/09 04:02:21;;;;;;;63.55;10.43;;;;;;;;;;5035908;28;20032;-72
2023/03/09 04:04:47;;;;;;;56.38;8.85;;;;;;;;;;5012967;28;20397;-72
2023/03/09 04:07:13;;;;;;;50.67;7.70;;;;;;;;;;5002976;28;20361;-72
2023/03/09 04:09:39;;;;;;;47.13;10.07;;;;;;;;;;5004896;28;20598;-72
2023/03/09 04:12:06;;;;;;;52.10;9.38;;;;;;;;;;5004972;28;20479;-71
2023/03/09 04:14:33;;;;;;;41.40;7.28;;;;;;;;;;5005862;28;20060;-72
2023/03/09 04:17:00;;;;;;;43.95;8.73;;;;;;;;;;5005991;28;20033;-72
2023/03/09 04:19:29;;;;;;;50.55;7.95;;;;;;;;;;5002882;28;20029;-72
2023/03/09 04:21:56;;;;;;;54.75;7.72;;;;;;;;;;5002898;28;20108;-72
2023/03/09 04:24:23;;;;;;;47.30;9.30;;;;;;;;;;5004133;28;20370;-71
2023/03/09 04:26:49;;;;;;;54.95;8.88;;;;;;;;;;5002730;28;20500;-71
2023/03/09 04:29:37;;;;;;;53.88;9.43;;;;;;;;;;5005412;28;20065;-72
2023/03/09 04:32:03;;;;;;;46.13;8.52;;;;;;;;;;5021670;28;20627;-72
2023/03/09 04:34:29;;;;;;;65.60;11.43;;;;;;;;;;5013848;28;20029;-72
2023/03/09 04:36:56;;;;;;;62.38;8.70;;;;;;;;;;5002037;28;20081;-72
2023/03/09 04:39:23;;;;;;;58.22;9.13;;;;;;;;;;5003825;28;20025;-72
2023/03/09 04:41:50;;;;;;;56.88;9.18;;;;;;;;;;4986441;28;20377;-72
2023/03/09 04:44:16;;;;;;;47.38;8.63;;;;;;;;;;5019762;28;20054;-72
2023/03/09 04:46:43;;;;;;;54.40;8.15;;;;;;;;;;5004217;28;20136;-71
2023/03/09 04:49:12;;;;;;;51.80;7.63;;;;;;;;;;5003665;28;20025;-71
2023/03/09 04:51:40;;;;;;;46.80;8.98;;;;;;;;;;5006229;28;20087;-71
2023/03/09 04:54:06;;;;;;;47.03;7.35;;;;;;;;;;5024809;28;20025;-71
2023/03/09 04:56:32;;;;;;;49.53;7.28;;;;;;;;;;5001511;28;20552;-71
2023/03/09 04:59:04;;;;;;;44.25;8.65;;;;;;;;;;5003937;28;20374;-71
2023/03/09 05:01:30;;;;;;;50.05;8.25;;;;;;;;;;5002453;28;20018;-72
2023/03/09 05:03:59;;;;;;;47.95;8.38;;;;;;;;;;5003543;28;20109;-72
2023/03/09 05:06:28;;;;;;;54.65;9.30;;;;;;;;;;5024113;28;20040;-71
2023/03/09 05:08:58;;;;;;;39.72;7.18;;;;;;;;;;5006994;28;20024;-71
2023/03/09 05:11:25;;;;;;;54.25;9.00;;;;;;;;;;5038820;28;20056;-71
2023/03/09 05:13:51;;;;;;;49.03;8.05;;;;;;;;;;5042546;28;20020;-71
2023/03/09 05:16:20;;;;;;;41.30;7.30;;;;;;;;;;5010751;28;20017;-71
2023/03/09 05:18:51;;;;;;;56.38;10.43;;;;;;;;;;5024370;28;20068;-71
2023/03/09 05:21:20;;;;;;;;;;;;;;;;;;5043779;28;20033;-71
2023/03/09 05:23:47;;;;;;;58.30;8.48;;;;;;;;;;5006485;28;19917;-71
2023/03/09 05:26:15;;;;;;;42.35;7.18;;;;;;;;;;5006307;28;20033;-71
2023/03/09 05:28:43;;;;;;;50.10;7.30;;;;;;;;;;5005099;28;20049;-71
2023/03/09 05:31:10;;;;;;;61.95;8.45;;;;;;;;;;5033627;28;20032;-71
2023/03/09 05:33:37;;;;;;;49.75;9.57;;;;;;;;;;5004622;28;20120;-71
2023/03/09 05:36:04;;;;;;;49.92;9.88;;;;;;;;;;5022512;28;20044;-72
2023/03/09 05:38:30;;;;;;;49.25;7.82;;;;;;;;;;5035884;28;20379;-72
2023/03/09 05:40:58;;;;;;;46.83;7.97;;;;;;;;;;5022515;28;20029;-72
2023/03/09 05:43:24;;;;;;;46.00;8.32;;;;;;;;;;5025550;28;20116;-72
2023/03/09 05:45:54;;;;;;;41.50;7.00;;;;;;;;;;5050672;28;20022;-72
2023/03/09 05:48:21;;;;;;;62.58;9.32;;;;;;;;;;5048165;28;20041;-72
2023/03/09 05:50:48;;;;;;;44.63;7.97;;;;;;;;;;5050193;28;20029;-72
2023/03/09 05:53:14;;;;;;;43.28;7.13;;;;;;;;;;5025579;28;20041;-72
2023/03/09 05:55:42;;;;;;;47.50;6.90;;;;;;;;;;5023949;28;20377;-71
2023/03/09 05:58:09;;;;;;;44.85;8.38;;;;;;;;;;5024930;28;20035;-72
2023/03/09 06:00:35;;;;;;;46.53;9.65;;;;;;;;;;5047836;28;20215;-72
2023/03/09 06:03:04;;;;;;;41.15;7.35;;;;;;;;;;5039064;28;20029;-72
2023/03/09 06:05:37;;;;;;;47.42;8.23;;;;;;;;;;5035747;28;20071;-72
2023/03/09 06:08:04;;;;;;;48.00;7.50;;;;;;;;;;5043048;28;20033;-72
2023/03/09 06:10:31;;;;;;;50.83;7.22;;;;;;;;;;5034576;28;20630;-72
2023/03/09 06:12:58;;;;;;;43.88;8.57;;;;;;;;;;5019993;28;20033;-72
2023/03/09 06:15:25;;;;;;;38.05;7.80;;;;;;;;;;5021365;28;20029;-72
2023/03/09 06:17:53;;;;;;;40.13;7.05;;;;;;;;;;5019311;28;20078;-72
2023/03/09 06:20:23;;;;;;;51.55;8.82;;;;;;;;;;5048861;28;20032;-71
2023/03/09 06:22:55;;;;;;;39.53;7.28;;;;;;;;;;5019172;28;20120;-72
2023/03/09 06:25:21;;;;;;;51.30;9.10;;;;;;;;;;5043139;28;20021;-72
2023/03/09 06:27:48;;;;;;;37.58;7.22;;;;;;;;;;5031897;28;21482;-72
2023/03/09 06:30:17;;;;;;;45.17;6.95;;;;;;;;;;5009037;28;20029;-72
2023/03/09 06:32:43;;;;;;;39.83;6.40;;;;;;;;;;5053543;28;20102;-72
2023/03/09 06:35:10;;;;;;;43.50;7.05;;;;;;;;;;5021569;28;20482;-72
2023/03/09 06:37:38;;;;;;;44.05;6.93;;;;;;;;;;5013055;28;20055;-72
2023/03/09 06:40:05;;;;;;;46.67;7.57;;;;;;;;;;5038180;28;20045;-73
2023/03/09 06:42:31;;;;;;;42.30;7.18;;;;;;;;;;5018010;28;20030;-72
2023/03/09 06:44:58;;;;;;;43.72;6.82;;;;;;;;;;5027386;28;20123;-72
2023/03/09 06:47:28;;;;;;;47.95;7.75;;;;;;;;;;5027557;28;20025;-73
2023/03/09 06:50:03;;;;;;;48.15;6.78;;;;;;;;;;5047985;28;20413;-75
2023/03/09 06:52:31;;;;;;;45.63;7.15;;;;;;;;;;5023378;28;20035;-75
2023/03/09 06:54:58;;;;;;;45.22;9.40;;;;;;;;;;5023943;28;20017;-75
2023/03/09 06:57:24;;;;;;;46.80;7.80;;;;;;;;;;5008084;28;20373;-75
2023/03/09 06:59:50;;;;;;;50.25;7.40;;;;;;;;;;5048966;28;20026;-77
2023/03/09 07:02:16;;;;;;;47.72;7.28;;;;;;;;;;5023301;28;20022;-77
2023/03/09 07:04:42;;;;;;;51.03;9.90;;;;;;;;;;5023628;28;20061;-75
2023/03/09 07:07:08;;;;;;;46.50;7.43;;;;;;;;;;5023211;28;20017;-74
2023/03/09 07:09:35;;;;;;;46.30;7.28;;;;;;;;;;5044732;28;20529;-75
2023/03/09 07:12:01;;;;;;;49.22;8.70;;;;;;;;;;5035841;28;20489;-76
2023/03/09 07:14:27;;;;;;;38.22;6.75;;;;;;;;;;5029030;28;20025;-75
2023/03/09 07:16:54;;;;;;;52.25;7.88;;;;;;;;;;5031753;28;20606;-74
2023/03/09 07:19:21;;;;;;;50.70;7.70;;;;;;;;;;5032436;28;20037;-74
2023/03/09 07:21:47;;;;;;;51.63;7.05;;;;;;;;;;5032483;28;20423;-74
2023/03/09 07:24:13;;;;;;;39.08;7.78;;;;;;;;;;5028851;28;20500;-74
2023/03/09 07:26:39;;;;;;;50.45;7.43;;;;;;;;;;5030032;28;20021;-74
2023/03/09 07:29:06;;;;;;;45.78;7.03;;;;;;;;;;5030917;28;20055;-74
2023/03/09 07:31:32;;;;;;;50.80;8.63;;;;;;;;;;5030599;28;20121;-74
2023/03/09 07:33:58;;;;;;;41.05;7.38;;;;;;;;;;5027613;28;20050;-73
2023/03/09 07:36:25;;;;;;;48.70;7.30;;;;;;;;;;5030359;28;20025;-76
2023/03/09 07:38:51;;;;;;;50.38;7.60;;;;;;;;;;5030644;28;20051;-75
2023/03/09 07:41:17;;;;;;;45.45;7.60;;;;;;;;;;5029082;28;20397;-75
2023/03/09 07:43:44;;;;;;;46.85;8.43;;;;;;;;;;5028794;28;20087;-75
2023/03/09 07:46:18;;;;;;;55.55;7.03;;;;;;;;;;5028592;28;21214;-74
2023/03/09 07:48:45;;;;;;;45.60;7.43;;;;;;;;;;5030342;28;20397;-75
2023/03/09 07:51:12;;;;;;;45.90;7.82;;;;;;;;;;5031384;28;20870;-72
2023/03/09 07:53:39;;;;;;;36.22;7.38;;;;;;;;;;5027422;28;20021;-66
2023/03/09 07:56:05;;;;;;;49.08;8.68;;;;;;;;;;5027044;28;20032;-75
2023/03/09 07:58:32;;;;;;;55.80;9.15;;;;;;;;;;5028767;28;20042;-75
2023/03/09 08:00:59;;;;;;;50.00;8.63;;;;;;;;;;5022889;28;20084;-75
2023/03/09 08:03:25;;;;;;;43.58;8.57;;;;;;;;;;5025757;28;20120;-75
2023/03/09 08:05:55;;;;;;;48.17;8.48;;;;;;;;;;5028825;28;20033;-75
2023/03/09 08:08:21;;;;;;;50.67;8.50;;;;;;;;;;5011309;28;20559;-75
2023/03/09 08:10:48;;;;;;;50.42;9.25;;;;;;;;;;5023905;28;20035;-75
2023/03/09 08:13:14;;;;;;;39.05;8.32;;;;;;;;;;5029711;28;20041;-71
2023/03/09 08:15:40;;;;;;;37.53;7.70;;;;;;;;;;5029201;28;20021;-75
2023/03/09 08:18:07;;;;;;;50.58;8.80;;;;;;;;;;5021692;28;20030;-74
2023/03/09 08:20:33;;;;;;;42.70;8.23;;;;;;;;;;5024716;28;20037;-75
2023/03/09 08:22:59;;;;;;;46.88;7.78;;;;;;;;;;5028016;28;20107;-75
2023/03/09 08:25:25;;;;;;;46.88;7.63;;;;;;;;;;5018826;28;20037;-75
2023/03/09 08:27:51;;;;;;;55.55;7.63;;;;;;;;;;5022371;28;20109;-74
2023/03/09 08:30:20;;;;;;;45.13;7.68;;;;;;;;;;5029704;28;20025;-73
2023/03/09 08:32:47;;;;;;;43.78;9.48;;;;;;;;;;5027671;28;20049;-74
2023/03/09 08:35:17;;;;;;;35.38;7.82;;;;;;;;;;5030486;28;20036;-73
2023/03/09 08:37:43;;;;;;;47.65;8.27;;;;;;;;;;5017413;28;20389;-74
2023/03/09 08:40:10;;;;;;;45.15;8.25;;;;;;;;;;5033448;28;20048;-75
2023/03/09 08:42:37;;;;;;;39.08;6.88;;;;;;;;;;5036774;28;20041;-74
2023/03/09 08:45:03;;;;;;;47.70;6.97;;;;;;;;;;5035674;28;20029;-73
2023/03/09 08:47:30;;;;;;;39.70;6.55;;;;;;;;;;5035358;28;20469;-74
2023/03/09 08:49:56;;;;;;;49.20;8.45;;;;;;;;;;5026119;28;20347;-74
2023/03/09 08:52:22;;;;;;;37.55;7.50;;;;;;;;;;5032679;28;20029;-71
2023/03/09 08:54:49;;;;;;;37.80;6.68;;;;;;;;;;5034620;28;20120;-75
2023/03/09 08:57:16;;;;;;;36.45;7.30;;;;;;;;;;5026869;28;20041;-74
2023/03/09 08:59:42;;;;;;;43.00;8.50;;;;;;;;;;5034611;28;20047;-75
2023/03/09 09:02:14;;;;;;;44.90;8.65;;;;;;;;;;5030888;28;20053;-75
2023/03/09 09:04:43;;;;;;;33.63;7.53;;;;;;;;;;5007681;28;20025;-74
2023/03/09 09:07:10;;;;;;;53.47;8.63;;;;;;;;;;5008817;28;20025;-75
2023/03/09 09:09:37;;;;;;;61.60;8.00;;;;;;;;;;5031218;28;20030;-75
2023/03/09 09:12:03;;;;;;;41.95;7.95;;;;;;;;;;5025286;28;20046;-74
2023/03/09 09:14:29;;;;;;;58.40;8.45;;;;;;;;;;5026244;28;20057;-74
2023/03/09 09:16:55;;;;;;;52.05;7.63;;;;;;;;;;5025087;28;20036;-75
2023/03/09 09:19:22;;;;;;;38.65;7.68;;;;;;;;;;5028544;28;20037;-75
2023/03/09 09:21:48;;;;;;;54.80;9.00;;;;;;;;;;5030996;28;20485;-75
2023/03/09 09:24:14;;;;;;;50.83;7.53;;;;;;;;;;5030602;28;20496;-75
2023/03/09 09:26:41;;;;;;;50.90;9.32;;;;;;;;;;5010384;28;20018;-75
2023/03/09 09:29:07;;;;;;;44.20;7.40;;;;;;;;;;5019557;28;20022;-75
2023/03/09 09:31:34;;;;;;;50.15;7.70;;;;;;;;;;5015442;28;20030;-75
2023/03/09 09:34:02;;;;;;;39.33;7.43;;;;;;;;;;5016681;28;20473;-75
2023/03/09 09:36:29;;;;;;;38.33;7.05;;;;;;;;;;5017996;28;20084;-76
2023/03/09 09:38:55;;;;;;;40.22;6.68;;;;;;;;;;5015652;28;20108;-75
2023/03/09 09:41:40;;;;;;;41.60;6.40;;;;;;;;;;5019270;28;20033;-76
2023/03/09 09:44:10;;;;;;;29.90;5.90;;;;;;;;;;5014661;28;20426;-75
2023/03/09 09:46:36;;;;;;;32.58;5.10;;;;;;;;;;5021539;28;20025;-75
2023/03/09 09:49:03;;;;;;;34.58;5.60;;;;;;;;;;5016871;28;20034;-75
2023/03/09 09:51:44;;;;;;;28.77;5.10;;;;;;;;;;5018067;28;20097;-75
2023/03/09 09:54:11;;;;;;;22.85;6.38;;;;;;;;;;5016036;28;20040;-75
2023/03/09 09:56:56;;;;;;;32.75;4.82;;;;;;;;;;5013230;28;20059;-75
2023/03/09 09:59:26;;;;;;;24.20;4.95;;;;;;;;;;5017314;28;20127;-75
2023/03/09 10:01:56;;;;;;;23.55;3.72;;;;;;;;;;5018824;28;20049;-75
2023/03/09 10:04:27;;;;;;;22.85;4.22;;;;;;;;;;5019666;28;20040;-74
2023/03/09 10:06:55;;;;;;;17.02;4.13;;;;;;;;;;5019126;28;20044;-74
2023/03/09 10:09:29;;;;;;;16.65;3.22;;;;;;;;;;5017366;28;20026;-75
2023/03/09 10:11:58;;;;;;;22.75;3.83;;;;;;;;;;5020360;28;20400;-74
2023/03/09 10:14:39;;;;;;;19.00;4.07;;;;;;;;;;5014966;28;20049;-74
2023/03/09 10:17:17;;;;;;;14.13;2.58;;;;;;;;;;5023747;28;20045;-74
2023/03/09 10:19:44;;;;;;;12.75;2.83;;;;;;;;;;5020510;28;20025;-74
2023/03/09 10:22:13;;;;;;;22.02;3.83;;;;;;;;;;5039281;28;20049;-73
2023/03/09 10:24:40;;;;;;;16.20;3.25;;;;;;;;;;5029253;28;20104;-73
2023/03/09 10:27:24;;;;;;;13.63;2.13;;;;;;;;;;5027785;28;20048;-73
2023/03/09 10:29:58;;;;;;;12.52;2.35;;;;;;;;;;5043514;28;20036;-73
2023/03/09 10:32:27;;;;;;;6.85;1.75;;;;;;;;;;5028482;28;20053;-73
2023/03/09 10:34:59;;;;;;;7.10;1.80;;;;;;;;;;5034170;28;20064;-73
2023/03/09 10:37:28;;;;;;;11.15;2.15;;;;;;;;;;5010622;28;20017;-73
2023/03/09 10:39:54;;;;;;;6.45;2.08;;;;;;;;;;5031545;28;20074;-73
2023/03/09 10:42:25;;;;;;;5.43;1.58;;;;;;;;;;5029116;28;20081;-73
2023/03/09 10:44:59;;;;;;;5.45;1.50;;;;;;;;;;5032841;28;20045;-73
2023/03/09 10:47:25;;;;;;;4.32;1.35;;;;;;;;;;5029661;28;20083;-73
2023/03/09 10:50:09;;;;;;;7.03;1.65;;;;;;;;;;5025336;28;20021;-74
2023/03/09 10:52:35;;;;;;;3.60;1.40;;;;;;;;;;5033340;28;20040;-74
2023/03/09 10:55:22;;;;;;;8.07;1.20;;;;;;;;;;5029304;28;20053;-74
2023/03/09 10:57:55;;;;;;;4.38;1.20;;;;;;;;;;5020733;28;20034;-74
2023/03/09 11:00:21;;;;;;;7.35;1.20;;;;;;;;;;5018224;28;20045;-74
2023/03/09 11:02:55;;;;;;;5.20;1.08;;;;;;;;;;5019138;28;20018;-74
2023/03/09 11:05:22;;;;;;;5.60;2.00;;;;;;;;;;5022534;28;20052;-73
2023/03/09 11:07:53;;;;;;;7.57;1.52;;;;;;;;;;5010523;28;20029;-73
2023/03/09 11:10:25;;;;;;;3.15;1.25;;;;;;;;;;5027445;28;20041;-73
2023/03/09 11:12:52;;;;;;;5.40;1.42;;;;;;;;;;5028636;28;20037;-73
2023/03/09 11:15:18;;;;;;;6.10;1.40;;;;;;;;;;5030033;28;20021;-74
2023/03/09 11:17:46;;;;;;;3.28;1.33;;;;;;;;;;5028805;28;20117;-74
2023/03/09 11:20:12;;;;;;;2.05;1.05;;;;;;;;;;5028024;28;20036;-73
2023/03/09 11:22:46;;;;;;;7.55;1.92;;;;;;;;;;5030489;28;20034;-75
2023/03/09 11:25:17;;;;;;;5.75;1.63;;;;;;;;;;5020651;28;20048;-74
2023/03/09 11:27:49;;;;;;;3.97;1.05;;;;;;;;;;5016432;28;20105;-74
2023/03/09 11:30:17;;;;;;;4.33;1.20;;;;;;;;;;5020212;28;20030;-74
2023/03/09 11:32:43;;;;;;;4.78;1.40;;;;;;;;;;5024855;28;20084;-74
2023/03/09 11:35:16;;;;;;;6.00;1.65;;;;;;;;;;5027160;28;20041;-75
2023/03/09 11:37:52;;;;;;;7.85;1.63;;;;;;;;;;5026542;28;20504;-74
2023/03/09 11:40:20;;;;;;;6.53;1.77;;;;;;;;;;5031919;28;20117;-74
2023/03/09 11:42:48;;;;;;;9.15;1.65;;;;;;;;;;5005644;28;20025;-74
2023/03/09 11:45:19;;;;;;;7.22;1.60;;;;;;;;;;5028672;28;20021;-74
2023/03/09 11:47:48;;;;;;;9.48;2.15;;;;;;;;;;5028980;28;20075;-74
2023/03/09 11:50:17;;;;;;;6.53;1.70;;;;;;;;;;5023822;28;20064;-74
2023/03/09 11:52:58;;;;;;;10.60;1.55;;;;;;;;;;5032266;28;20025;-74
2023/03/09 11:55:28;;;;;;;7.45;1.35;;;;;;;;;;5025910;28;20112;-73
2023/03/09 11:57:56;;;;;;;7.78;1.75;;;;;;;;;;5038313;28;20036;-74
2023/03/09 12:00:23;;;;;;;5.72;2.17;;;;;;;;;;5024444;28;20030;-74
2023/03/09 12:03:02;;;;;;;8.82;1.75;;;;;;;;;;5026861;28;20022;-74
2023/03/09 12:05:48;;;;;;;7.07;1.23;;;;;;;;;;5022062;28;20036;-74
2023/03/09 12:08:14;;;;;;;4.22;1.48;;;;;;;;;;5020758;28;20100;-74
2023/03/09 12:10:44;;;;;;;6.93;2.28;;;;;;;;;;5029119;28;20098;-74
2023/03/09 12:13:10;;;;;;;7.47;1.80;;;;;;;;;;5024176;28;20037;-74
2023/03/09 12:15:45;;;;;;;7.78;1.90;;;;;;;;;;5027256;28;20369;-73
2023/03/09 12:18:20;;;;;;;6.00;1.50;;;;;;;;;;5028332;28;20037;-75
2023/03/09 12:20:51;;;;;;;4.45;1.80;;;;;;;;;;5025876;28;20030;-78
2023/03/09 12:23:35;;;;;;;7.70;2.53;;;;;;;;;;5034050;28;20481;-76
2023/03/09 12:26:03;;;;;;;6.65;1.70;;;;;;;;;;5024658;28;20101;-75
2023/03/09 12:28:30;;;;;;;6.95;1.85;;;;;;;;;;5015177;28;20490;-76
2023/03/09 12:30:57;;;;;;;9.57;2.10;;;;;;;;;;5015206;28;20051;-74
2023/03/09 12:33:41;;;;;;;11.93;2.25;;;;;;;;;;5033319;28;20053;-74
2023/03/09 12:36:26;;;;;;;7.57;1.88;;;;;;;;;;5031091;28;20033;-74
2023/03/09 12:39:11;;;;;;;11.32;2.53;;;;;;;;;;5027690;28;20049;-74
2023/03/09 12:41:56;;;;;;;12.52;2.40;;;;;;;;;;5027949;28;20385;-75
2023/03/09 12:44:41;;;;;;;12.98;2.92;;;;;;;;;;5028844;28;20026;-75
2023/03/09 12:47:20;;;;;;;10.65;2.33;;;;;;;;;;5030081;28;20057;-75
2023/03/09 12:49:48;;;;;;;14.05;3.20;;;;;;;;;;5049252;28;20021;-75
2023/03/09 12:52:20;;;;;;;24.08;4.25;;;;;;;;;;5034045;28;20497;-75
2023/03/09 12:54:54;;;;;;;35.97;5.35;;;;;;;;;;5018326;28;20159;-75
2023/03/09 12:57:20;;;;;;;32.45;5.65;;;;;;;;;;5033285;28;20469;-70
2023/03/09 12:59:49;;;;;;;32.50;5.30;;;;;;;;;;5031049;28;20486;-75
2023/03/09 13:02:25;;;;;;;40.10;6.18;;;;;;;;;;5032815;28;20034;-75
2023/03/09 13:05:10;;;;;;;30.27;5.45;;;;;;;;;;5032357;28;20021;-75
2023/03/09 13:07:36;;;;;;;36.97;6.63;;;;;;;;;;5034703;28;20021;-75
2023/03/09 13:10:02;;;;;;;29.42;5.57;;;;;;;;;;5029946;28;20477;-75
2023/03/09 13:12:30;;;;;;;42.08;6.93;;;;;;;;;;5032878;28;20025;-75
2023/03/09 13:15:14;;;;;;;46.35;7.60;;;;;;;;;;5049397;28;20030;-75
2023/03/09 13:17:41;;;;;;;42.15;7.82;;;;;;;;;;5029568;28;20474;-75
2023/03/09 13:20:17;;;;;;;46.45;7.68;;;;;;;;;;5033550;28;20409;-75
2023/03/09 13:22:45;;;;;;;42.33;8.27;;;;;;;;;;5032990;28;20366;-75
2023/03/09 13:25:23;;;;;;;40.03;5.72;;;;;;;;;;5042902;28;20493;-76
2023/03/09 13:27:50;;;;;;;34.55;6.63;;;;;;;;;;5024634;28;20120;-76
2023/03/09 13:30:26;;;;;;;37.33;6.90;;;;;;;;;;5030349;28;20039;-75
2023/03/09 13:32:52;;;;;;;37.28;6.85;;;;;;;;;;5028505;28;20132;-75
2023/03/09 13:35:21;;;;;;;48.53;9.00;;;;;;;;;;5033015;28;20048;-75
2023/03/09 13:37:51;;;;;;;44.28;7.45;;;;;;;;;;5029823;28;20036;-76
2023/03/09 13:40:25;;;;;;;48.45;7.75;;;;;;;;;;5029731;28;20065;-75
2023/03/09 13:42:52;;;;;;;28.60;5.30;;;;;;;;;;5032797;28;20072;-75
2023/03/09 13:45:22;;;;;;;32.28;6.43;;;;;;;;;;5030644;28;20022;-75
2023/03/09 13:47:53;;;;;;;27.23;6.18;;;;;;;;;;5031741;28;20108;-75
2023/03/09 13:50:19;;;;;;;41.08;6.65;;;;;;;;;;5032973;28;20108;-75
2023/03/09 13:53:06;;;;;;;37.50;6.47;;;;;;;;;;5032121;28;20084;-75
2023/03/09 13:55:32;;;;;;;28.25;5.65;;;;;;;;;;5029400;28;20037;-75
2023/03/09 13:58:14;;;;;;;29.42;5.30;;;;;;;;;;5026208;28;20148;-75
2023/03/09 14:00:51;;;;;;;36.38;5.97;;;;;;;;;;5031627;28;20033;-75
2023/03/09 14:03:17;;;;;;;33.42;6.07;;;;;;;;;;5028081;28;20034;-75
2023/03/09 14:05:53;;;;;;;38.17;6.38;;;;;;;;;;5030725;28;20018;-74
2023/03/09 14:08:21;;;;;;;36.40;7.05;;;;;;;;;;5032543;28;20481;-75
2023/03/09 14:10:48;;;;;;;28.95;5.25;;;;;;;;;;5032921;28;20128;-75
2023/03/09 14:13:16;;;;;;;31.88;4.88;;;;;;;;;;5031055;28;20044;-75
2023/03/09 14:15:44;;;;;;;23.20;5.72;;;;;;;;;;5032027;28;20028;-75
2023/03/09 14:18:39;;;;;;;24.80;5.57;;;;;;;;;;5030556;28;20026;-75
2023/03/09 14:21:17;;;;;;;27.63;5.47;;;;;;;;;;5013544;28;20033;-75
2023/03/09 14:23:43;;;;;;;27.85;6.03;;;;;;;;;;5031588;28;20112;-75
2023/03/09 14:26:09;;;;;;;27.83;6.47;;;;;;;;;;5031693;28;20456;-74
2023/03/09 14:28:39;;;;;;;17.90;3.40;;;;;;;;;;5031773;28;20029;-75
2023/03/09 14:31:17;;;;;;;24.20;3.80;;;;;;;;;;5029785;28;20047;-75
2023/03/09 14:34:10;;;;;;;19.75;4.22;;;;;;;;;;5030524;28;20053;-75
2023/03/09 14:36:38;;;;;;;21.92;4.35;;;;;;;;;;4990015;28;20038;-75
2023/03/09 14:39:10;;;;;;;26.10;4.65;;;;;;;;;;4989415;28;20041;-76
2023/03/09 14:41:37;;;;;;;25.37;4.20;;;;;;;;;;4989991;28;20117;-74
2023/03/09 14:44:04;;;;;;;27.17;4.97;;;;;;;;;;4991345;28;20034;-75